createdAt,value
2018-06-18T00:00:34.118Z,99.90
2018-06-18T00:03:02.361Z,99.90
2018-06-18T00:05:30.660Z,99.90
2018-06-18T00:07:58.955Z,99.90
2018-06-18T00:10:27.225Z,99.90
2018-06-18T00:12:55.495Z,99.90
2018-06-18T00:15:23.791Z,99.90
2018-06-18T00:17:52.060Z,99.90
2018-06-18T00:20:20.358Z,99.90
2018-06-18T00:22:48.622Z,99.90
2018-06-18T00:25:16.836Z,99.90
2018-06-18T00:27:45.152Z,99.90
2018-06-18T00:30:13.376Z,99.90
2018-06-18T00:32:41.672Z,99.90
2018-06-18T00:35:09.979Z,99.90
2018-06-18T00:37:38.294Z,99.90
2018-06-18T00:40:06.515Z,99.90
2018-06-18T00:42:34.818Z,99.90
2018-06-18T00:45:03.100Z,99.90
2018-06-18T00:47:31.408Z,99.90
2018-06-18T00:49:59.700Z,99.90
2018-06-18T00:52:27.950Z,99.90
2018-06-18T00:54:56.212Z,99.90
2018-06-18T00:57:24.468Z,99.90
2018-06-18T00:59:52.750Z,99.90
2018-06-18T01:02:21.011Z,99.90
2018-06-18T01:04:49.272Z,99.90
2018-06-18T01:07:17.516Z,99.90
2018-06-18T01:09:45.810Z,99.90
2018-06-18T01:12:14.088Z,99.90
2018-06-18T01:14:42.443Z,99.90
2018-06-18T01:17:10.692Z,99.90
2018-06-18T01:19:38.916Z,99.90
2018-06-18T01:22:07.200Z,99.90
2018-06-18T01:24:56.333Z,99.90
2018-06-18T01:27:24.606Z,99.90
2018-06-18T01:29:52.903Z,99.90
2018-06-18T01:32:21.164Z,99.90
2018-06-18T01:34:49.414Z,99.90
2018-06-18T01:37:17.660Z,99.90
2018-06-18T01:39:45.911Z,99.90
2018-06-18T01:42:14.171Z,99.90
2018-06-18T01:44:42.486Z,99.90
2018-06-18T01:47:10.749Z,99.90
2018-06-18T01:52:06.991Z,99.90
2018-06-18T01:54:35.279Z,99.90
2018-06-18T01:59:31.557Z,99.90
2018-06-18T02:02:00.551Z,99.90
2018-06-18T02:04:28.804Z,99.90
2018-06-18T02:06:57.066Z,99.90
2018-06-18T02:11:53.337Z,99.90
2018-06-18T02:14:21.581Z,99.90
2018-06-18T02:19:17.887Z,99.90
2018-06-18T02:21:46.240Z,99.90
2018-06-18T02:24:14.516Z,99.90
2018-06-18T02:26:42.782Z,99.90
2018-06-18T02:29:16.302Z,99.90
2018-06-18T02:31:49.992Z,99.90
2018-06-18T02:34:23.635Z,99.90
2018-06-18T02:36:57.348Z,99.90
2018-06-18T02:39:25.614Z,99.90
2018-06-18T02:41:53.917Z,99.90
2018-06-18T02:44:22.158Z,99.90
2018-06-18T02:46:50.478Z,99.90
2018-06-18T02:49:18.735Z,99.90
2018-06-18T02:51:46.977Z,99.90
2018-06-18T02:54:15.207Z,99.90
2018-06-18T02:56:55.051Z,99.90
2018-06-18T02:59:23.337Z,99.90
2018-06-18T03:01:51.599Z,99.90
2018-06-18T03:04:19.850Z,99.90
2018-06-18T03:06:48.075Z,99.90
2018-06-18T03:09:16.367Z,99.90
2018-06-18T03:11:44.630Z,99.90
2018-06-18T03:14:12.909Z,99.90
2018-06-18T03:16:41.167Z,99.90
2018-06-18T03:19:14.906Z,99.90
2018-06-18T03:21:48.678Z,99.90
2018-06-18T03:24:22.251Z,99.90
2018-06-18T03:26:55.874Z,99.90
2018-06-18T03:29:26.527Z,99.90
2018-06-18T03:31:56.540Z,99.90
2018-06-18T03:34:24.802Z,99.90
2018-06-18T03:36:53.389Z,99.90
2018-06-18T03:39:21.687Z,99.90
2018-06-18T03:41:51.087Z,99.90
2018-06-18T03:44:30.781Z,99.90
2018-06-18T03:47:03.308Z,99.90
2018-06-18T03:49:31.562Z,99.90
2018-06-18T03:51:59.813Z,99.90
2018-06-18T03:56:56.540Z,99.90
2018-06-18T03:59:24.810Z,99.90
2018-06-18T04:02:06.308Z,99.90
2018-06-18T04:04:51.868Z,99.90
2018-06-18T04:07:26.571Z,99.90
2018-06-18T04:10:00.579Z,99.90
2018-06-18T04:12:28.951Z,99.90
2018-06-18T04:14:57.302Z,99.90
2018-06-18T04:19:53.603Z,99.90
2018-06-18T04:22:22.743Z,99.90
2018-06-18T04:24:51.105Z,99.90
2018-06-18T04:27:19.375Z,99.90
2018-06-18T04:29:47.590Z,99.90
2018-06-18T04:32:15.870Z,99.90
2018-06-18T04:34:47.268Z,99.90
2018-06-18T04:37:15.560Z,99.90
2018-06-18T04:39:43.890Z,99.90
2018-06-18T04:42:17.656Z,99.90
2018-06-18T04:45:53.156Z,99.90
2018-06-18T04:48:26.808Z,99.90
2018-06-18T04:50:59.164Z,99.90
2018-06-18T04:53:27.427Z,99.90
2018-06-18T04:55:55.656Z,99.90
2018-06-18T04:58:23.928Z,99.90
2018-06-18T05:01:26.975Z,99.90
2018-06-18T05:03:55.394Z,99.90
2018-06-18T05:06:24.698Z,99.90
2018-06-18T05:09:00.512Z,99.90
2018-06-18T05:11:28.915Z,99.90
2018-06-18T05:13:57.212Z,99.90
2018-06-18T05:16:25.490Z,99.90
2018-06-18T05:18:53.789Z,99.90
2018-06-18T05:21:22.006Z,99.90
2018-06-18T05:23:50.954Z,99.90
2018-06-18T05:26:19.510Z,99.90
2018-06-18T05:28:47.824Z,99.90
2018-06-18T05:31:16.035Z,99.90
2018-06-18T05:33:44.286Z,99.90
2018-06-18T05:36:12.555Z,99.90
2018-06-18T05:38:40.832Z,99.90
2018-06-18T05:41:09.111Z,99.90
2018-06-18T05:43:37.382Z,99.90
2018-06-18T05:46:05.675Z,99.90
2018-06-18T05:48:34.030Z,99.90
2018-06-18T05:51:02.356Z,99.90
2018-06-18T05:55:58.779Z,99.90
2018-06-18T05:58:27.078Z,99.90
2018-06-18T06:00:55.415Z,99.90
2018-06-18T06:03:23.685Z,99.90
2018-06-18T06:05:52.018Z,99.90
2018-06-18T06:08:20.268Z,99.90
2018-06-18T06:10:48.523Z,99.90
2018-06-18T06:13:16.748Z,99.90
2018-06-18T06:15:45.094Z,99.90
2018-06-18T06:18:13.358Z,99.90
2018-06-18T06:20:59.129Z,99.90
2018-06-18T06:25:55.339Z,99.90
2018-06-18T06:28:24.216Z,99.90
2018-06-18T06:30:52.590Z,99.90
2018-06-18T06:33:21.238Z,99.90
2018-06-18T06:35:49.713Z,99.90
2018-06-18T06:38:17.987Z,99.90
2018-06-18T06:40:47.047Z,99.90
2018-06-18T06:45:43.346Z,99.90
2018-06-18T06:48:11.603Z,99.90
2018-06-18T06:50:39.960Z,99.90
2018-06-18T06:53:08.252Z,99.90
2018-06-18T06:55:36.514Z,99.90
2018-06-18T06:58:04.940Z,99.90
2018-06-18T07:00:33.194Z,99.90
2018-06-18T07:03:01.459Z,99.90
2018-06-18T07:05:29.750Z,99.90
2018-06-18T07:07:58.103Z,99.90
2018-06-18T07:10:26.602Z,99.90
2018-06-18T07:12:54.827Z,99.90
2018-06-18T07:17:51.425Z,99.90
2018-06-18T07:20:19.708Z,99.90
2018-06-18T07:22:47.994Z,99.90
2018-06-18T07:25:16.262Z,99.90
2018-06-18T07:27:44.504Z,99.90
2018-06-18T07:30:12.838Z,99.90
2018-06-18T07:32:41.078Z,99.90
2018-06-18T07:35:09.366Z,99.90
2018-06-18T07:37:37.978Z,99.90
2018-06-18T07:40:06.239Z,99.90
2018-06-18T07:42:34.519Z,99.90
2018-06-18T07:45:02.788Z,99.90
2018-06-18T07:47:31.065Z,99.90
2018-06-18T07:49:59.352Z,99.90
2018-06-18T07:52:27.654Z,99.90
2018-06-18T07:57:24.036Z,99.90
2018-06-18T07:59:52.468Z,99.90
2018-06-18T08:02:20.774Z,99.90
2018-06-18T08:04:49.156Z,99.90
2018-06-18T08:07:17.520Z,99.90
2018-06-18T08:09:45.868Z,99.90
2018-06-18T08:12:14.116Z,99.90
2018-06-18T08:14:42.430Z,99.90
2018-06-18T08:17:11.121Z,99.90
2018-06-18T08:19:39.548Z,99.90
2018-06-18T08:22:07.818Z,99.90
2018-06-18T08:24:36.155Z,99.90
2018-06-18T08:29:33.438Z,99.90
2018-06-18T08:32:01.699Z,99.90
2018-06-18T08:34:29.966Z,99.90
2018-06-18T08:36:58.263Z,99.90
2018-06-18T08:39:26.553Z,99.90
2018-06-18T08:41:55.800Z,99.90
2018-06-18T08:44:24.095Z,99.90
2018-06-18T08:46:52.430Z,99.90
2018-06-18T08:49:20.738Z,99.90
2018-06-18T08:51:54.406Z,99.90
2018-06-18T08:54:28.003Z,99.90
2018-06-18T08:57:01.742Z,99.90
2018-06-18T08:59:35.508Z,99.90
2018-06-18T09:02:03.803Z,99.90
2018-06-18T09:04:37.485Z,99.90
2018-06-18T09:07:11.114Z,99.90
2018-06-18T09:09:39.383Z,99.90
2018-06-18T09:12:07.678Z,99.90
2018-06-18T09:14:36.103Z,99.90
2018-06-18T09:17:04.605Z,98.00
2018-06-18T09:19:32.831Z,97.70
2018-06-18T09:22:01.142Z,97.90
2018-06-18T09:24:33.726Z,98.90
2018-06-18T09:27:07.424Z,98.40
2018-06-18T09:29:36.290Z,99.50
2018-06-18T09:32:08.919Z,99.90
2018-06-18T09:34:37.080Z,99.90
2018-06-18T09:37:05.646Z,99.90
2018-06-18T09:39:33.911Z,99.90
2018-06-18T09:42:02.200Z,99.90
2018-06-18T09:44:30.508Z,99.90
2018-06-18T09:46:59.288Z,99.90
2018-06-18T09:49:33.130Z,99.90
2018-06-18T09:52:06.820Z,99.90
2018-06-18T09:54:40.620Z,99.80
2018-06-18T09:57:26.879Z,99.60
2018-06-18T10:00:05.097Z,99.00
2018-06-18T10:02:33.347Z,99.90
2018-06-18T10:05:01.604Z,99.50
2018-06-18T10:07:29.913Z,99.80
2018-06-18T10:09:58.147Z,99.90
2018-06-18T10:12:26.439Z,99.90
2018-06-18T10:17:22.821Z,99.90
2018-06-18T10:19:51.899Z,99.90
2018-06-18T10:22:20.146Z,99.90
2018-06-18T10:24:48.488Z,99.90
2018-06-18T10:27:16.744Z,99.90
2018-06-18T10:29:45.028Z,99.90
2018-06-18T10:32:18.588Z,99.90
2018-06-18T10:37:25.806Z,99.90
2018-06-18T10:39:59.226Z,99.90
2018-06-18T10:42:32.863Z,99.90
2018-06-18T10:45:01.196Z,99.90
2018-06-18T10:47:29.432Z,99.90
2018-06-18T10:49:57.715Z,99.90
2018-06-18T10:54:54.012Z,99.30
2018-06-18T10:57:22.301Z,98.30
2018-06-18T10:59:50.572Z,97.80
2018-06-18T11:02:18.828Z,97.20
2018-06-18T11:04:52.258Z,98.00
2018-06-18T11:07:20.594Z,96.00
2018-06-18T11:09:48.878Z,95.50
2018-06-18T11:12:17.173Z,93.90
2018-06-18T11:14:45.656Z,92.80
2018-06-18T11:17:19.441Z,94.90
2018-06-18T11:19:53.039Z,94.20
2018-06-18T11:22:25.573Z,96.20
2018-06-18T11:25:57.869Z,96.00
2018-06-18T11:28:26.200Z,96.00
2018-06-18T11:30:54.381Z,96.20
2018-06-18T11:33:22.660Z,97.60
2018-06-18T11:35:50.998Z,97.20
2018-06-18T11:38:19.231Z,97.20
2018-06-18T11:43:15.504Z,98.00
2018-06-18T11:45:43.804Z,97.90
2018-06-18T11:48:15.838Z,99.60
2018-06-18T11:50:44.099Z,98.50
2018-06-18T11:58:08.448Z,98.90
2018-06-18T12:00:42.131Z,97.90
2018-06-18T12:03:15.689Z,98.50
2018-06-18T12:05:49.409Z,99.20
2018-06-18T12:08:23.143Z,98.50
2018-06-18T12:10:51.887Z,98.10
2018-06-18T12:13:20.203Z,98.70
2018-06-18T12:15:49.336Z,99.90
2018-06-18T12:18:17.629Z,99.90
2018-06-18T12:20:45.917Z,99.90
2018-06-18T12:23:14.193Z,99.90
2018-06-18T12:25:42.423Z,99.50
2018-06-18T12:28:10.719Z,99.20
2018-06-18T12:30:39.066Z,98.50
2018-06-18T12:33:07.325Z,99.90
2018-06-18T12:35:35.968Z,97.90
2018-06-18T12:38:04.279Z,98.50
2018-06-18T12:43:00.716Z,97.90
2018-06-18T12:45:35.382Z,98.50
2018-06-18T12:48:09.074Z,98.80
2018-06-18T12:50:43.051Z,99.70
2018-06-18T12:55:50.512Z,99.30
2018-06-18T12:58:18.852Z,99.90
2018-06-18T13:00:47.519Z,98.80
2018-06-18T13:03:16.920Z,99.90
2018-06-18T13:05:45.515Z,99.90
2018-06-18T13:08:13.908Z,99.90
2018-06-18T13:10:42.223Z,99.90
2018-06-18T13:13:10.650Z,99.90
2018-06-18T13:15:38.985Z,99.90
2018-06-18T13:18:07.361Z,99.90
2018-06-18T13:20:35.894Z,99.90
2018-06-18T13:25:32.458Z,99.90
2018-06-18T13:28:06.105Z,99.90
2018-06-18T13:30:34.435Z,99.90
2018-06-18T13:33:02.795Z,99.90
2018-06-18T13:35:31.089Z,99.90
2018-06-18T13:40:38.077Z,99.90
2018-06-18T13:43:11.924Z,99.90
2018-06-18T13:45:42.678Z,99.90
2018-06-18T13:48:25.800Z,99.90
2018-06-18T13:50:54.158Z,99.90
2018-06-18T13:53:22.480Z,99.90
2018-06-18T13:55:50.808Z,99.90
2018-06-18T13:58:19.129Z,99.90
2018-06-18T14:00:47.479Z,99.90
2018-06-18T14:03:15.800Z,99.90
2018-06-18T14:05:44.089Z,99.90
2018-06-18T14:08:12.381Z,99.90
2018-06-18T14:10:40.675Z,99.90
2018-06-18T14:13:09.063Z,99.90
2018-06-18T14:15:37.339Z,99.90
2018-06-18T14:18:05.622Z,99.90
2018-06-18T14:20:33.930Z,99.90
2018-06-18T14:23:02.174Z,99.90
2018-06-18T14:25:30.529Z,99.90
2018-06-18T14:27:58.881Z,99.90
2018-06-18T14:30:32.711Z,99.90
2018-06-18T14:34:09.191Z,99.90
2018-06-18T14:36:42.802Z,99.90
2018-06-18T14:39:16.519Z,99.90
2018-06-18T14:41:44.874Z,99.90
2018-06-18T14:44:13.261Z,99.90
2018-06-18T14:46:41.511Z,99.90
2018-06-18T14:49:09.810Z,99.90
2018-06-18T14:51:38.060Z,99.90
2018-06-18T14:54:06.494Z,99.90
2018-06-18T14:59:23.950Z,99.90
2018-06-18T15:01:52.227Z,99.90
2018-06-18T15:04:20.471Z,99.90
2018-06-18T15:06:48.798Z,99.90
2018-06-18T15:09:17.187Z,99.90
2018-06-18T15:11:45.622Z,99.90
2018-06-18T15:14:13.911Z,99.90
2018-06-18T15:16:42.235Z,99.90
2018-06-18T15:19:10.520Z,99.90
2018-06-18T15:21:42.875Z,99.90
2018-06-18T15:24:22.878Z,99.90
2018-06-18T15:26:51.311Z,99.90
2018-06-18T15:29:20.095Z,99.90
2018-06-18T15:31:48.465Z,99.90
2018-06-18T15:34:16.894Z,99.90
2018-06-18T15:36:45.380Z,99.90
2018-06-18T15:39:13.817Z,99.90
2018-06-18T15:41:42.185Z,99.90
2018-06-18T15:46:38.506Z,99.90
2018-06-18T15:49:06.838Z,99.90
2018-06-18T15:51:35.135Z,99.90
2018-06-18T15:54:03.463Z,99.90
2018-06-18T15:56:31.867Z,99.90
2018-06-18T15:59:00.120Z,99.90
2018-06-18T16:01:28.403Z,99.90
2018-06-18T16:03:57.359Z,99.90
2018-06-18T16:06:25.660Z,99.90
2018-06-18T16:08:53.991Z,99.90
2018-06-18T16:11:22.356Z,99.90
2018-06-18T16:13:50.640Z,99.90
2018-06-18T16:16:19.210Z,99.90
2018-06-18T16:18:47.538Z,99.90
2018-06-18T16:21:16.086Z,99.90
2018-06-18T16:23:44.440Z,99.90
2018-06-18T16:26:13.014Z,99.90
2018-06-18T16:28:41.300Z,99.90
2018-06-18T16:31:09.725Z,99.90
2018-06-18T16:33:38.099Z,99.90
2018-06-18T16:36:06.604Z,99.90
2018-06-18T16:38:34.938Z,99.90
2018-06-18T16:41:03.271Z,99.90
2018-06-18T16:43:31.667Z,99.90
2018-06-18T16:46:00.163Z,99.90
2018-06-18T16:48:28.485Z,99.90
2018-06-18T16:50:56.852Z,99.90
2018-06-18T16:53:25.190Z,99.90
2018-06-18T16:55:53.682Z,99.90
2018-06-18T16:58:22.116Z,99.90
2018-06-18T17:00:50.530Z,99.90
2018-06-18T17:03:18.858Z,99.90
2018-06-18T17:08:15.602Z,99.90
2018-06-18T17:10:43.950Z,99.90
2018-06-18T17:13:12.239Z,99.90
2018-06-18T17:15:40.497Z,99.90
2018-06-18T17:18:08.779Z,99.90
2018-06-18T17:20:37.120Z,99.90
2018-06-18T17:23:05.449Z,99.90
2018-06-18T17:25:33.714Z,99.90
2018-06-18T17:28:01.991Z,99.90
2018-06-18T17:30:30.322Z,99.90
2018-06-18T17:35:26.697Z,99.90
2018-06-18T17:37:55.546Z,99.90
2018-06-18T17:40:23.864Z,99.90
2018-06-18T17:42:52.443Z,99.90
2018-06-18T17:45:20.739Z,99.90
2018-06-18T17:47:49.135Z,99.90
2018-06-18T17:50:17.502Z,99.90
2018-06-18T17:52:45.853Z,99.90
2018-06-18T17:55:14.102Z,99.90
2018-06-18T17:57:42.483Z,99.90
2018-06-18T18:02:39.040Z,99.90
2018-06-18T18:05:07.467Z,99.90
2018-06-18T18:07:35.955Z,99.90
2018-06-18T18:10:04.654Z,99.90
2018-06-18T18:12:33.050Z,99.90
2018-06-18T18:17:29.542Z,99.90
2018-06-18T18:19:58.139Z,99.90
2018-06-18T18:22:26.536Z,99.90
2018-06-18T18:24:55.107Z,99.90
2018-06-18T18:27:23.620Z,99.90
2018-06-18T18:29:53.128Z,99.90
2018-06-18T18:32:21.426Z,99.90
2018-06-18T18:34:49.845Z,99.90
2018-06-18T18:37:18.349Z,99.90
2018-06-18T18:39:46.677Z,99.90
2018-06-18T18:42:14.964Z,99.90
2018-06-18T18:44:43.184Z,99.90
2018-06-18T18:47:11.543Z,99.90
2018-06-18T18:49:39.818Z,99.90
2018-06-18T18:52:08.112Z,99.90
2018-06-18T18:56:00.313Z,99.90
2018-06-18T18:58:58.616Z,99.90
2018-06-18T19:01:27.782Z,99.90
2018-06-18T19:03:59.045Z,99.90
2018-06-18T19:06:27.341Z,99.90
2018-06-18T19:08:55.656Z,99.90
2018-06-18T19:11:24.051Z,99.90
2018-06-18T19:13:52.321Z,99.90
2018-06-18T19:16:20.696Z,99.90
2018-06-18T19:18:54.750Z,99.90
2018-06-18T19:21:23.185Z,99.90
2018-06-18T19:23:51.673Z,99.90
2018-06-18T19:26:20.153Z,99.90
2018-06-18T19:28:48.478Z,99.90
2018-06-18T19:31:19.705Z,99.90
2018-06-18T19:34:04.285Z,99.90
2018-06-18T19:36:32.583Z,99.90
2018-06-18T19:39:00.952Z,99.90
2018-06-18T19:41:29.217Z,99.90
2018-06-18T19:43:57.480Z,99.90
2018-06-18T19:46:33.866Z,99.90
2018-06-18T19:49:09.185Z,99.90
2018-06-18T19:51:37.566Z,99.90
2018-06-18T19:54:09.286Z,99.90
2018-06-18T19:56:37.658Z,99.90
2018-06-18T19:59:06.298Z,99.90
2018-06-18T20:01:35.178Z,99.90
2018-06-18T20:04:03.489Z,99.90
2018-06-18T20:06:31.859Z,99.90
2018-06-18T20:09:00.109Z,99.90
2018-06-18T20:11:28.435Z,99.90
2018-06-18T20:13:56.775Z,99.90
2018-06-18T20:16:25.050Z,99.90
2018-06-18T20:18:53.309Z,99.90
2018-06-18T20:21:21.575Z,99.90
2018-06-18T20:23:49.861Z,99.90
2018-06-18T20:26:18.298Z,99.90
2018-06-18T20:28:46.602Z,99.90
2018-06-18T20:31:14.933Z,99.90
2018-06-18T20:33:47.857Z,99.90
2018-06-18T20:36:17.594Z,99.90
2018-06-18T20:38:45.934Z,99.90
2018-06-18T20:41:14.244Z,99.90
2018-06-18T20:44:17.383Z,99.90
2018-06-18T20:49:14.615Z,99.90
2018-06-18T20:51:43.278Z,99.90
2018-06-18T20:54:12.494Z,99.90
2018-06-18T20:56:40.839Z,99.90
2018-06-18T20:59:10.723Z,99.90
2018-06-18T21:01:39.003Z,99.90
2018-06-18T21:04:07.532Z,99.90
2018-06-18T21:06:36.563Z,99.90
2018-06-18T21:09:07.789Z,99.90
2018-06-18T21:11:36.063Z,99.90
2018-06-18T21:14:04.417Z,99.90
2018-06-18T21:16:32.720Z,99.90
2018-06-18T21:19:00.952Z,99.90
2018-06-18T21:21:29.182Z,99.90
2018-06-18T21:23:57.491Z,99.90
2018-06-18T21:26:25.743Z,99.90
2018-06-18T21:28:54.014Z,99.90
2018-06-18T21:31:22.262Z,99.90
2018-06-18T21:33:50.553Z,99.90
2018-06-18T21:36:18.804Z,99.90
2018-06-18T21:38:47.144Z,99.90
2018-06-18T21:41:15.399Z,99.90
2018-06-18T21:43:43.673Z,99.90
2018-06-18T21:46:11.995Z,99.90
2018-06-18T21:48:40.333Z,99.90
2018-06-18T21:51:08.609Z,99.90
2018-06-18T21:53:36.877Z,99.90
2018-06-18T21:56:05.171Z,99.90
2018-06-18T21:58:33.451Z,99.90
2018-06-18T22:01:01.789Z,99.90
2018-06-18T22:03:30.089Z,99.90
2018-06-18T22:05:58.412Z,99.90
2018-06-18T22:08:28.126Z,99.90
2018-06-18T22:10:57.010Z,99.90
2018-06-18T22:13:25.284Z,99.90
2018-06-18T22:15:53.599Z,99.90
2018-06-18T22:18:21.876Z,99.90
2018-06-18T22:20:50.194Z,99.90
2018-06-18T22:25:46.509Z,99.90
2018-06-18T22:28:48.079Z,99.90
2018-06-18T22:31:16.385Z,99.90
2018-06-18T22:33:44.659Z,99.90
2018-06-18T22:36:12.897Z,99.90
2018-06-18T22:38:41.224Z,99.90
2018-06-18T22:41:09.461Z,99.90
2018-06-18T22:43:37.723Z,99.90
2018-06-18T22:46:06.044Z,99.90
2018-06-18T22:48:34.335Z,99.90
2018-06-18T22:51:02.665Z,99.90
2018-06-18T22:53:30.956Z,99.90
2018-06-18T22:58:27.259Z,99.90
2018-06-18T23:00:56.664Z,99.90
2018-06-18T23:03:24.922Z,99.90
2018-06-18T23:05:53.250Z,99.90
2018-06-18T23:08:21.584Z,99.90
2018-06-18T23:10:50.580Z,99.90
2018-06-18T23:13:22.167Z,99.90
2018-06-18T23:15:50.439Z,99.90
2018-06-18T23:18:18.743Z,99.90
2018-06-18T23:20:47.033Z,99.90
2018-06-18T23:23:15.337Z,99.90
2018-06-18T23:25:43.631Z,99.90
2018-06-18T23:28:12.164Z,99.90
2018-06-18T23:30:40.701Z,99.90
2018-06-18T23:33:08.983Z,99.90
2018-06-18T23:35:37.305Z,99.90
2018-06-18T23:38:05.652Z,99.90
2018-06-18T23:40:33.950Z,99.90
2018-06-18T23:43:02.232Z,99.90
2018-06-18T23:45:30.548Z,99.90
2018-06-18T23:47:58.842Z,99.90
2018-06-18T23:50:27.173Z,99.90
2018-06-18T23:52:55.498Z,99.90
2018-06-18T23:55:23.798Z,99.90
2018-06-18T23:57:52.062Z,99.90
